CFB Trenton
CYTR : now visible

Airfield :











YOU CAN JOIN US ON...

 
LOGIN :

Register | Disclaimer

   EN    FR    IT 

 









Legend :    VFR   Marginal VFR   IFR   Intensive IFR   Very Intensive IFR
Visi :
Ceiling :
>= 8 km
>= 3000ft
5 to 8 km
1000 to 3000 ft
1500m to 5 km
500 to 1000 ft
800 to 1500m
200 to 500 ft
< 800m
< 200 ft
Symbols :   Thunderstorms  Fog  Heavy snow  Heavy precipitations  Wind > 20 kt






- Airport Elevation : 283 ft
- IATA code : YTR


CYTR - CFB Trenton

CURRENT METAR :
  • 181100Z 08007KT 15SM BKN018 BKN045 OVC080 M11/M16 A3049 RMK SC5SC2AC2 SLP332

EXPIRED METARs :
  • 181040Z 07006KT 15SM BKN018 OVC080 M11/M16 A3050 RMK SC5AC3 SLP338
  • 181000Z 07005KT 15SM SCT080 OVC120 M11/M17 A3054 RMK AC3AC5 PRESFR SLP351
  • 180900Z 08004KT 15SM FEW095 OVC140 M12/M18 A3061 RMK AC2AC6 SLP373

TAF AMD TAF CYTR
Valid from the 18 at 10:00 until the 19 at 06:00 UTC


181048Z 1810/1906 08008KT P6SM SCT015 OVC080
TEMPO 1810/1817 OVC015
FM181700 08012G22KT 1SM -SN OVC010
TEMPO 1817/1821 3SM -SN OVC015
FM182100 10012G22KT 1/2SM -SN BLSN VV008
TEMPO 1821/1906 1SM -SN OVC010
BECMG 1904/1906 25015KT RMK NXT FCST BY 181200Z



MET'MAP, your aeronautical weather chart ! - Copyright ORBIFLY December 2007 - Disclaimer

ORBIFLY MET'MAP TEAM :

Programming & Development : Alexandra Zaïnal
Concept & original design : Baudouin d'Aumeries
Assistance for programming : Marc-Olivier Méhu
Technical & hardware support : Manuel Goepfert

Contact : metmap@orbifly.com




SOURCES & CREDITS :

   NOAA       Earth
Advisory